sensor_id;sensor_type;location;lat;lon;timestamp;pressure;altitude;pressure_sealevel;temperature;humidity
56807;BME280;42687;42.524;12.052;2023-05-16T00:00:25;95133.63;;;8.77;92.99
56807;BME280;42687;42.524;12.052;2023-05-16T00:02:51;95159.25;;;8.85;93.28
56807;BME280;42687;42.524;12.052;2023-05-16T00:05:16;95146.38;;;8.82;94.13
56807;BME280;42687;42.524;12.052;2023-05-16T00:07:44;95143.63;;;8.83;94.45
56807;BME280;42687;42.524;12.052;2023-05-16T00:10:11;95145.28;;;8.84;94.06
56807;BME280;42687;42.524;12.052;2023-05-16T00:12:37;95136.47;;;8.85;94.13
56807;BME280;42687;42.524;12.052;2023-05-16T00:15:05;95136.13;;;8.79;94.38
56807;BME280;42687;42.524;12.052;2023-05-16T00:17:33;95130.53;;;8.83;94.80
56807;BME280;42687;42.524;12.052;2023-05-16T00:20:02;95130.66;;;8.82;94.67
56807;BME280;42687;42.524;12.052;2023-05-16T00:22:42;95134.69;;;8.75;95.02
56807;BME280;42687;42.524;12.052;2023-05-16T00:25:08;95120.75;;;8.74;95.22
56807;BME280;42687;42.524;12.052;2023-05-16T00:27:34;95124.19;;;8.75;95.38
56807;BME280;42687;42.524;12.052;2023-05-16T00:30:01;95117.88;;;8.77;95.29
56807;BME280;42687;42.524;12.052;2023-05-16T00:32:27;95111.22;;;8.73;96.19
56807;BME280;42687;42.524;12.052;2023-05-16T00:34:53;95117.06;;;8.77;96.77
56807;BME280;42687;42.524;12.052;2023-05-16T00:37:19;95118.97;;;8.75;96.17
56807;BME280;42687;42.524;12.052;2023-05-16T00:39:46;95108.59;;;8.73;97.72
56807;BME280;42687;42.524;12.052;2023-05-16T00:42:12;95113.72;;;8.75;97.41
56807;BME280;42687;42.524;12.052;2023-05-16T00:44:38;95094.75;;;8.71;98.03
56807;BME280;42687;42.524;12.052;2023-05-16T00:47:03;95104.19;;;8.74;97.46
56807;BME280;42687;42.524;12.052;2023-05-16T00:49:29;95104.19;;;8.74;98.49
56807;BME280;42687;42.524;12.052;2023-05-16T00:51:56;95108.34;;;8.76;99.44
56807;BME280;42687;42.524;12.052;2023-05-16T00:54:23;95105.50;;;8.79;98.03
56807;BME280;42687;42.524;12.052;2023-05-16T00:56:51;95083.22;;;8.74;98.59
56807;BME280;42687;42.524;12.052;2023-05-16T00:59:18;95097.88;;;8.76;98.34
56807;BME280;42687;42.524;12.052;2023-05-16T01:01:45;95078.44;;;8.79;98.28
56807;BME280;42687;42.524;12.052;2023-05-16T01:04:13;95040.22;;;8.54;98.49
56807;BME280;42687;42.524;12.052;2023-05-16T01:06:39;95070.25;;;8.83;98.36
56807;BME280;42687;42.524;12.052;2023-05-16T01:09:05;95076.31;;;8.84;98.33
56807;BME280;42687;42.524;12.052;2023-05-16T01:11:46;95066.56;;;8.86;98.87
56807;BME280;42687;42.524;12.052;2023-05-16T01:17:59;95065.09;;;8.93;98.90
56807;BME280;42687;42.524;12.052;2023-05-16T01:25:44;95055.09;;;8.98;99.77
56807;BME280;42687;42.524;12.052;2023-05-16T01:28:16;95042.31;;;8.94;99.59
56807;BME280;42687;42.524;12.052;2023-05-16T01:30:43;95053.28;;;8.99;99.63
56807;BME280;42687;42.524;12.052;2023-05-16T01:33:09;95056.75;;;8.99;99.79
56807;BME280;42687;42.524;12.052;2023-05-16T01:35:52;95043.66;;;8.99;99.81
56807;BME280;42687;42.524;12.052;2023-05-16T01:38:25;95041.59;;;9.03;99.94
56807;BME280;42687;42.524;12.052;2023-05-16T01:43:42;95039.44;;;9.08;100.00
56807;BME280;42687;42.524;12.052;2023-05-16T01:46:17;95041.25;;;9.08;100.00
56807;BME280;42687;42.524;12.052;2023-05-16T01:49:11;95020.41;;;9.06;100.00
56807;BME280;42687;42.524;12.052;2023-05-16T01:51:44;95012.66;;;9.05;100.00
56807;BME280;42687;42.524;12.052;2023-05-16T01:54:14;95012.66;;;9.05;100.00
56807;BME280;42687;42.524;12.052;2023-05-16T01:56:49;95000.50;;;9.04;100.00
56807;BME280;42687;42.524;12.052;2023-05-16T01:59:16;94997.50;;;9.08;100.00
56807;BME280;42687;42.524;12.052;2023-05-16T02:01:42;95001.31;;;9.04;100.00
56807;BME280;42687;42.524;12.052;2023-05-16T02:04:08;94996.81;;;9.06;100.00
56807;BME280;42687;42.524;12.052;2023-05-16T02:06:34;94990.00;;;9.04;100.00
56807;BME280;42687;42.524;12.052;2023-05-16T02:09:00;94997.88;;;9.04;100.00
56807;BME280;42687;42.524;12.052;2023-05-16T02:11:26;94990.13;;;9.02;100.00
56807;BME280;42687;42.524;12.052;2023-05-16T02:13:51;94997.53;;;8.97;100.00
56807;BME280;42687;42.524;12.052;2023-05-16T02:16:17;94992.97;;;8.99;100.00
56807;BME280;42687;42.524;12.052;2023-05-16T02:18:42;94989.66;;;8.97;100.00
56807;BME280;42687;42.524;12.052;2023-05-16T02:21:10;94985.25;;;8.97;100.00
56807;BME280;42687;42.524;12.052;2023-05-16T02:23:35;94984.16;;;9.00;100.00
56807;BME280;42687;42.524;12.052;2023-05-16T02:26:01;94982.75;;;8.96;100.00
56807;BME280;42687;42.524;12.052;2023-05-16T02:28:27;94971.31;;;8.97;100.00
56807;BME280;42687;42.524;12.052;2023-05-16T02:30:57;94964.88;;;8.90;100.00
56807;BME280;42687;42.524;12.052;2023-05-16T02:33:24;94970.47;;;8.96;100.00
56807;BME280;42687;42.524;12.052;2023-05-16T02:35:51;94962.72;;;8.95;100.00
56807;BME280;42687;42.524;12.052;2023-05-16T02:38:17;94895.31;;;8.53;100.00
56807;BME280;42687;42.524;12.052;2023-05-16T02:40:46;94965.34;;;8.95;100.00
56807;BME280;42687;42.524;12.052;2023-05-16T02:43:12;94952.50;;;8.92;100.00
56807;BME280;42687;42.524;12.052;2023-05-16T02:45:37;94943.22;;;8.88;100.00
56807;BME280;42687;42.524;12.052;2023-05-16T02:48:03;94935.50;;;8.86;100.00
56807;BME280;42687;42.524;12.052;2023-05-16T02:50:29;94944.31;;;8.85;100.00
56807;BME280;42687;42.524;12.052;2023-05-16T02:52:54;94937.38;;;8.84;100.00
56807;BME280;42687;42.524;12.052;2023-05-16T02:55:21;94942.88;;;8.81;100.00
56807;BME280;42687;42.524;12.052;2023-05-16T02:57:46;94930.72;;;8.80;100.00
56807;BME280;42687;42.524;12.052;2023-05-16T03:00:12;94924.41;;;8.82;100.00
56807;BME280;42687;42.524;12.052;2023-05-16T03:02:38;94926.81;;;8.74;100.00
56807;BME280;42687;42.524;12.052;2023-05-16T03:05:04;94922.41;;;8.75;100.00
56807;BME280;42687;42.524;12.052;2023-05-16T03:07:30;94917.97;;;8.75;100.00
56807;BME280;42687;42.524;12.052;2023-05-16T03:09:56;94911.91;;;8.75;100.00
56807;BME280;42687;42.524;12.052;2023-05-16T03:12:22;94893.69;;;8.73;100.00
56807;BME280;42687;42.524;12.052;2023-05-16T03:14:47;94892.97;;;8.71;100.00
56807;BME280;42687;42.524;12.052;2023-05-16T03:17:13;94887.75;;;8.71;100.00
56807;BME280;42687;42.524;12.052;2023-05-16T03:19:39;94885.13;;;8.71;100.00
56807;BME280;42687;42.524;12.052;2023-05-16T03:22:05;94873.09;;;8.68;100.00
56807;BME280;42687;42.524;12.052;2023-05-16T03:24:30;94873.09;;;8.68;100.00
56807;BME280;42687;42.524;12.052;2023-05-16T03:26:56;94886.09;;;8.70;100.00
56807;BME280;42687;42.524;12.052;2023-05-16T03:29:23;94870.59;;;8.67;100.00
56807;BME280;42687;42.524;12.052;2023-05-16T03:31:50;94863.94;;;8.63;100.00
56807;BME280;42687;42.524;12.052;2023-05-16T03:34:15;94870.84;;;8.64;100.00
56807;BME280;42687;42.524;12.052;2023-05-16T03:36:41;94874.31;;;8.64;100.00
56807;BME280;42687;42.524;12.052;2023-05-16T03:39:07;94877.78;;;8.65;100.00
56807;BME280;42687;42.524;12.052;2023-05-16T03:41:33;94875.38;;;8.62;100.00
56807;BME280;42687;42.524;12.052;2023-05-16T03:43:59;94857.16;;;8.60;100.00
56807;BME280;42687;42.524;12.052;2023-05-16T03:46:25;94800.22;;;8.18;100.00
56807;BME280;42687;42.524;12.052;2023-05-16T03:48:50;94852.19;;;8.57;100.00
56807;BME280;42687;42.524;12.052;2023-05-16T03:51:16;94859.19;;;8.57;100.00
56807;BME280;42687;42.524;12.052;2023-05-16T03:53:42;94859.31;;;8.55;100.00
56807;BME280;42687;42.524;12.052;2023-05-16T03:56:07;94867.66;;;8.60;100.00
56807;BME280;42687;42.524;12.052;2023-05-16T03:58:33;94862.41;;;8.60;100.00
56807;BME280;42687;42.524;12.052;2023-05-16T04:00:59;94865.16;;;8.59;100.00
56807;BME280;42687;42.524;12.052;2023-05-16T04:03:25;94861.81;;;8.57;100.00
56807;BME280;42687;42.524;12.052;2023-05-16T04:05:56;94866.94;;;8.58;100.00
56807;BME280;42687;42.524;12.052;2023-05-16T04:08:22;94877.31;;;8.60;100.00
56807;BME280;42687;42.524;12.052;2023-05-16T04:10:47;94860.03;;;8.57;100.00
56807;BME280;42687;42.524;12.052;2023-05-16T04:13:13;94865.16;;;8.59;100.00
56807;BME280;42687;42.524;12.052;2023-05-16T04:15:40;94853.84;;;8.58;100.00
56807;BME280;42687;42.524;12.052;2023-05-16T04:18:07;94850.78;;;8.53;100.00
56807;BME280;42687;42.524;12.052;2023-05-16T04:20:33;94849.91;;;8.52;100.00
56807;BME280;42687;42.524;12.052;2023-05-16T04:22:59;94856.56;;;8.57;100.00
56807;BME280;42687;42.524;12.052;2023-05-16T04:25:25;94856.22;;;8.61;100.00
56807;BME280;42687;42.524;12.052;2023-05-16T04:27:51;94844.44;;;8.56;100.00
56807;BME280;42687;42.524;12.052;2023-05-16T04:30:18;94851.69;;;8.63;100.00
56807;BME280;42687;42.524;12.052;2023-05-16T04:32:43;94800.78;;;8.33;100.00
56807;BME280;42687;42.524;12.052;2023-05-16T04:35:09;94829.06;;;8.62;100.00
56807;BME280;42687;42.524;12.052;2023-05-16T04:37:35;94827.97;;;8.65;100.00
56807;BME280;42687;42.524;12.052;2023-05-16T04:40:01;94826.06;;;8.67;100.00
56807;BME280;42687;42.524;12.052;2023-05-16T04:42:27;94822.88;;;8.63;100.00
56807;BME280;42687;42.524;12.052;2023-05-16T04:44:53;94813.22;;;8.64;100.00
56807;BME280;42687;42.524;12.052;2023-05-16T04:47:18;94806.63;;;8.70;100.00
56807;BME280;42687;42.524;12.052;2023-05-16T04:49:44;94805.09;;;8.67;100.00
56807;BME280;42687;42.524;12.052;2023-05-16T04:52:10;94805.56;;;8.72;100.00
56807;BME280;42687;42.524;12.052;2023-05-16T04:54:37;94801.25;;;8.71;100.00
56807;BME280;42687;42.524;12.052;2023-05-16T04:57:04;94793.28;;;8.73;100.00
56807;BME280;42687;42.524;12.052;2023-05-16T04:59:30;94795.78;;;8.74;100.00
56807;BME280;42687;42.524;12.052;2023-05-16T05:01:56;94795.38;;;8.79;100.00
56807;BME280;42687;42.524;12.052;2023-05-16T05:04:21;94781.69;;;8.75;100.00
56807;BME280;42687;42.524;12.052;2023-05-16T05:06:47;94777.19;;;8.77;100.00
56807;BME280;42687;42.524;12.052;2023-05-16T05:09:13;94773.47;;;8.80;100.00
56807;BME280;42687;42.524;12.052;2023-05-16T05:11:39;94772.53;;;8.81;100.00
56807;BME280;42687;42.524;12.052;2023-05-16T05:14:04;94770.72;;;8.81;100.00
56807;BME280;42687;42.524;12.052;2023-05-16T05:16:30;94767.00;;;8.84;100.00
56807;BME280;42687;42.524;12.052;2023-05-16T05:18:56;94766.06;;;8.85;100.00
56807;BME280;42687;42.524;12.052;2023-05-16T05:21:22;94766.66;;;8.89;100.00
56807;BME280;42687;42.524;12.052;2023-05-16T05:23:50;94761.50;;;8.87;100.00
56807;BME280;42687;42.524;12.052;2023-05-16T05:26:16;94768.19;;;8.91;100.00
56807;BME280;42687;42.524;12.052;2023-05-16T05:28:42;94775.66;;;8.96;100.00
56807;BME280;42687;42.524;12.052;2023-05-16T05:31:08;94774.44;;;9.00;100.00
56807;BME280;42687;42.524;12.052;2023-05-16T05:33:34;94781.66;;;9.08;100.00
56807;BME280;42687;42.524;12.052;2023-05-16T05:35:59;94790.34;;;9.08;100.00
56807;BME280;42687;42.524;12.052;2023-05-16T05:38:25;94798.41;;;9.16;100.00
56807;BME280;42687;42.524;12.052;2023-05-16T05:40:51;94796.63;;;9.17;100.00
56807;BME280;42687;42.524;12.052;2023-05-16T05:43:17;94798.03;;;9.21;100.00
56807;BME280;42687;42.524;12.052;2023-05-16T05:45:43;94793.34;;;9.25;100.00
56807;BME280;42687;42.524;12.052;2023-05-16T05:48:10;94790.72;;;9.25;100.00
56807;BME280;42687;42.524;12.052;2023-05-16T05:50:36;94787.03;;;9.27;100.00
56807;BME280;42687;42.524;12.052;2023-05-16T05:53:02;94784.31;;;9.39;100.00
56807;BME280;42687;42.524;12.052;2023-05-16T05:55:28;94787.50;;;9.42;100.00
56807;BME280;42687;42.524;12.052;2023-05-16T05:57:54;94773.56;;;9.42;100.00
56807;BME280;42687;42.524;12.052;2023-05-16T06:00:19;94771.78;;;9.52;100.00
56807;BME280;42687;42.524;12.052;2023-05-16T06:02:47;94733.78;;;9.37;100.00
56807;BME280;42687;42.524;12.052;2023-05-16T06:05:13;94782.25;;;9.73;100.00
56807;BME280;42687;42.524;12.052;2023-05-16T06:07:38;94781.84;;;9.78;100.00
56807;BME280;42687;42.524;12.052;2023-05-16T06:10:04;94781.16;;;9.76;100.00
56807;BME280;42687;42.524;12.052;2023-05-16T06:12:33;94789.88;;;9.86;100.00
56807;BME280;42687;42.524;12.052;2023-05-16T06:14:58;94781.19;;;9.85;100.00
56807;BME280;42687;42.524;12.052;2023-05-16T06:17:24;94790.06;;;9.94;100.00
56807;BME280;42687;42.524;12.052;2023-05-16T06:19:49;94788.13;;;9.96;100.00
56807;BME280;42687;42.524;12.052;2023-05-16T06:22:16;94781.06;;;9.97;100.00
56807;BME280;42687;42.524;12.052;2023-05-16T06:24:41;94786.31;;;9.97;100.00
56807;BME280;42687;42.524;12.052;2023-05-16T06:27:07;94779.97;;;9.99;100.00
56807;BME280;42687;42.524;12.052;2023-05-16T06:29:33;94789.69;;;10.09;100.00
56807;BME280;42687;42.524;12.052;2023-05-16T06:31:58;94750.13;;;9.91;100.00
56807;BME280;42687;42.524;12.052;2023-05-16T06:34:24;94788.88;;;10.18;100.00
56807;BME280;42687;42.524;12.052;2023-05-16T06:36:53;94780.19;;;10.27;100.00
56807;BME280;42687;42.524;12.052;2023-05-16T06:39:19;94777.31;;;10.40;100.00
56807;BME280;42687;42.524;12.052;2023-05-16T06:41:45;94787.59;;;10.53;100.00
56807;BME280;42687;42.524;12.052;2023-05-16T06:44:11;94781.75;;;10.59;100.00
56807;BME280;42687;42.524;12.052;2023-05-16T06:46:36;94761.03;;;10.46;100.00
56807;BME280;42687;42.524;12.052;2023-05-16T06:49:03;94785.38;;;10.68;100.00
56807;BME280;42687;42.524;12.052;2023-05-16T06:51:29;94806.25;;;10.79;100.00
56807;BME280;42687;42.524;12.052;2023-05-16T06:53:56;94801.81;;;10.80;100.00
56807;BME280;42687;42.524;12.052;2023-05-16T06:56:22;94805.28;;;10.80;100.00
56807;BME280;42687;42.524;12.052;2023-05-16T06:58:48;94804.59;;;10.78;100.00
56807;BME280;42687;42.524;12.052;2023-05-16T07:01:15;94808.88;;;10.79;100.00
56807;BME280;42687;42.524;12.052;2023-05-16T07:03:41;94818.56;;;10.79;100.00
56807;BME280;42687;42.524;12.052;2023-05-16T07:06:06;94812.88;;;10.74;100.00
56807;BME280;42687;42.524;12.052;2023-05-16T07:08:32;94820.38;;;10.78;100.00
56807;BME280;42687;42.524;12.052;2023-05-16T07:11:00;94813.44;;;10.77;100.00
56807;BME280;42687;42.524;12.052;2023-05-16T07:13:26;94837.81;;;10.89;100.00
56807;BME280;42687;42.524;12.052;2023-05-16T07:15:52;94833.94;;;10.93;100.00
56807;BME280;42687;42.524;12.052;2023-05-16T07:18:18;94822.03;;;10.99;100.00
56807;BME280;42687;42.524;12.052;2023-05-16T07:20:43;94820.25;;;10.99;100.00
56807;BME280;42687;42.524;12.052;2023-05-16T07:23:10;94829.22;;;11.07;100.00
56807;BME280;42687;42.524;12.052;2023-05-16T07:25:36;94829.06;;;11.08;100.00
56807;BME280;42687;42.524;12.052;2023-05-16T07:28:02;94832.00;;;11.05;100.00
56807;BME280;42687;42.524;12.052;2023-05-16T07:30:28;94839.03;;;11.05;100.00
56807;BME280;42687;42.524;12.052;2023-05-16T07:32:54;94849.81;;;11.11;100.00
56807;BME280;42687;42.524;12.052;2023-05-16T07:35:19;94826.56;;;11.16;100.00
56807;BME280;42687;42.524;12.052;2023-05-16T07:37:45;94840.53;;;11.27;100.00
56807;BME280;42687;42.524;12.052;2023-05-16T07:40:11;94852.03;;;11.35;100.00
56807;BME280;42687;42.524;12.052;2023-05-16T07:42:37;94825.16;;;11.32;100.00
56807;BME280;42687;42.524;12.052;2023-05-16T07:45:04;94850.59;;;11.51;100.00
56807;BME280;42687;42.524;12.052;2023-05-16T07:47:31;94837.00;;;11.65;100.00
56807;BME280;42687;42.524;12.052;2023-05-16T07:49:57;94827.53;;;11.82;100.00
56807;BME280;42687;42.524;12.052;2023-05-16T07:52:22;94819.44;;;11.94;100.00
56807;BME280;42687;42.524;12.052;2023-05-16T07:54:48;94827.56;;;12.10;100.00
56807;BME280;42687;42.524;12.052;2023-05-16T07:57:15;94829.78;;;12.15;100.00
56807;BME280;42687;42.524;12.052;2023-05-16T07:59:41;94840.56;;;12.22;100.00
56807;BME280;42687;42.524;12.052;2023-05-16T08:02:07;94839.44;;;12.24;100.00
56807;BME280;42687;42.524;12.052;2023-05-16T08:04:33;94841.16;;;12.15;100.00
56807;BME280;42687;42.524;12.052;2023-05-16T08:06:59;94831.31;;;12.08;100.00
56807;BME280;42687;42.524;12.052;2023-05-16T08:09:24;94828.16;;;12.04;100.00
56807;BME280;42687;42.524;12.052;2023-05-16T08:11:50;94833.66;;;12.11;100.00
56807;BME280;42687;42.524;12.052;2023-05-16T08:14:16;94842.22;;;12.23;100.00
56807;BME280;42687;42.524;12.052;2023-05-16T08:16:43;94839.97;;;12.28;100.00
56807;BME280;42687;42.524;12.052;2023-05-16T08:19:08;94836.34;;;12.29;100.00
56807;BME280;42687;42.524;12.052;2023-05-16T08:21:34;94839.97;;;12.28;100.00
56807;BME280;42687;42.524;12.052;2023-05-16T08:24:00;94844.31;;;12.47;100.00
56807;BME280;42687;42.524;12.052;2023-05-16T08:26:26;94843.94;;;12.60;100.00
56807;BME280;42687;42.524;12.052;2023-05-16T08:28:52;94844.16;;;12.66;100.00
56807;BME280;42687;42.524;12.052;2023-05-16T08:31:17;94844.16;;;12.66;100.00
56807;BME280;42687;42.524;12.052;2023-05-16T08:33:43;94842.44;;;12.57;100.00
56807;BME280;42687;42.524;12.052;2023-05-16T08:36:09;94852.78;;;12.68;100.00
56807;BME280;42687;42.524;12.052;2023-05-16T08:38:35;94849.72;;;12.73;100.00
56807;BME280;42687;42.524;12.052;2023-05-16T08:41:01;94853.69;;;12.77;100.00
56807;BME280;42687;42.524;12.052;2023-05-16T08:43:27;94855.66;;;12.93;100.00
56807;BME280;42687;42.524;12.052;2023-05-16T08:45:54;94855.25;;;13.06;100.00
56807;BME280;42687;42.524;12.052;2023-05-16T08:48:22;94855.81;;;13.10;100.00
56807;BME280;42687;42.524;12.052;2023-05-16T08:50:48;94858.75;;;13.07;100.00
56807;BME280;42687;42.524;12.052;2023-05-16T08:53:19;94859.13;;;13.12;100.00
56807;BME280;42687;42.524;12.052;2023-05-16T08:55:47;94858.75;;;13.07;100.00
56807;BME280;42687;42.524;12.052;2023-05-16T08:58:13;94864.84;;;13.07;100.00
56807;BME280;42687;42.524;12.052;2023-05-16T09:00:39;94867.22;;;13.10;100.00
56807;BME280;42687;42.524;12.052;2023-05-16T09:03:05;94877.44;;;13.13;100.00
56807;BME280;42687;42.524;12.052;2023-05-16T09:05:32;94852.28;;;13.01;100.00
56807;BME280;42687;42.524;12.052;2023-05-16T09:07:58;94869.06;;;13.18;100.00
56807;BME280;42687;42.524;12.052;2023-05-16T09:10:24;94876.16;;;13.35;100.00
56807;BME280;42687;42.524;12.052;2023-05-16T09:12:50;94893.66;;;13.55;100.00
56807;BME280;42687;42.524;12.052;2023-05-16T09:15:17;94891.22;;;13.61;100.00
56807;BME280;42687;42.524;12.052;2023-05-16T09:17:46;94836.41;;;13.19;100.00
56807;BME280;42687;42.524;12.052;2023-05-16T09:20:18;94887.47;;;13.46;100.00
56807;BME280;42687;42.524;12.052;2023-05-16T09:22:54;94898.50;;;13.41;100.00
56807;BME280;42687;42.524;12.052;2023-05-16T09:25:21;94897.81;;;13.39;100.00
56807;BME280;42687;42.524;12.052;2023-05-16T09:27:52;94897.28;;;13.35;100.00
56807;BME280;42687;42.524;12.052;2023-05-16T09:30:20;94896.31;;;13.18;100.00
56807;BME280;42687;42.524;12.052;2023-05-16T09:32:51;94900.50;;;13.11;100.00
56807;BME280;42687;42.524;12.052;2023-05-16T09:35:18;94901.19;;;13.13;100.00
56807;BME280;42687;42.524;12.052;2023-05-16T09:37:45;94840.34;;;12.79;100.00
56807;BME280;42687;42.524;12.052;2023-05-16T09:40:12;94903.00;;;13.13;100.00
56807;BME280;42687;42.524;12.052;2023-05-16T09:42:38;94892.09;;;13.08;100.00
56807;BME280;42687;42.524;12.052;2023-05-16T09:45:04;94903.00;;;13.13;100.00
56807;BME280;42687;42.524;12.052;2023-05-16T09:47:29;94897.47;;;13.06;100.00
56807;BME280;42687;42.524;12.052;2023-05-16T09:49:55;94898.63;;;13.04;100.00
56807;BME280;42687;42.524;12.052;2023-05-16T09:52:21;94898.25;;;12.98;100.00
56807;BME280;42687;42.524;12.052;2023-05-16T09:54:51;94903.06;;;13.03;100.00
56807;BME280;42687;42.524;12.052;2023-05-16T09:57:19;94875.94;;;12.93;100.00
56807;BME280;42687;42.524;12.052;2023-05-16T09:59:51;94892.59;;;13.11;100.00
56807;BME280;42687;42.524;12.052;2023-05-16T10:02:18;94899.16;;;13.25;100.00
56807;BME280;42687;42.524;12.052;2023-05-16T10:04:44;94905.72;;;13.21;100.00
56807;BME280;42687;42.524;12.052;2023-05-16T10:07:11;94889.44;;;13.08;100.00
56807;BME280;42687;42.524;12.052;2023-05-16T10:09:38;94908.81;;;13.16;100.00
56807;BME280;42687;42.524;12.052;2023-05-16T10:12:07;94904.81;;;13.12;100.00
56807;BME280;42687;42.524;12.052;2023-05-16T10:14:36;94899.69;;;13.11;100.00
56807;BME280;42687;42.524;12.052;2023-05-16T10:17:05;94905.72;;;13.03;100.00
56807;BME280;42687;42.524;12.052;2023-05-16T10:19:35;94922.81;;;12.99;100.00
56807;BME280;42687;42.524;12.052;2023-05-16T10:22:05;94908.63;;;12.82;100.00
56807;BME280;42687;42.524;12.052;2023-05-16T10:24:42;94921.00;;;12.81;100.00
56807;BME280;42687;42.524;12.052;2023-05-16T10:27:09;94921.72;;;12.74;100.00
56807;BME280;42687;42.524;12.052;2023-05-16T10:29:37;94923.81;;;12.70;100.00
56807;BME280;42687;42.524;12.052;2023-05-16T10:32:04;94925.41;;;12.63;100.00
56807;BME280;42687;42.524;12.052;2023-05-16T10:34:31;94918.38;;;12.54;100.00
56807;BME280;42687;42.524;12.052;2023-05-16T10:36:58;94929.44;;;12.57;100.00
56807;BME280;42687;42.524;12.052;2023-05-16T10:39:24;94915.19;;;12.50;100.00
56807;BME280;42687;42.524;12.052;2023-05-16T10:41:51;94935.00;;;12.54;100.00
56807;BME280;42687;42.524;12.052;2023-05-16T10:44:17;94922.56;;;12.46;100.00
56807;BME280;42687;42.524;12.052;2023-05-16T10:46:46;94932.22;;;12.56;100.00
56807;BME280;42687;42.524;12.052;2023-05-16T10:49:20;94933.22;;;12.55;100.00
56807;BME280;42687;42.524;12.052;2023-05-16T10:52:03;94926.84;;;12.47;100.00
56807;BME280;42687;42.524;12.052;2023-05-16T10:54:34;94914.50;;;12.48;100.00
56807;BME280;42687;42.524;12.052;2023-05-16T10:57:05;94915.75;;;12.54;100.00
56807;BME280;42687;42.524;12.052;2023-05-16T10:59:46;94928.03;;;12.63;100.00
56807;BME280;42687;42.524;12.052;2023-05-16T11:02:23;94918.84;;;12.67;100.00
56807;BME280;42687;42.524;12.052;2023-05-16T11:04:55;94923.25;;;12.76;100.00
56807;BME280;42687;42.524;12.052;2023-05-16T11:07:22;94936.75;;;12.91;100.00
56807;BME280;42687;42.524;12.052;2023-05-16T11:10:21;94932.56;;;13.16;100.00
56807;BME280;42687;42.524;12.052;2023-05-16T11:12:50;94935.97;;;13.27;100.00
56807;BME280;42687;42.524;12.052;2023-05-16T11:15:20;94939.00;;;13.50;100.00
56807;BME280;42687;42.524;12.052;2023-05-16T11:17:48;94937.31;;;13.67;100.00
56807;BME280;42687;42.524;12.052;2023-05-16T11:20:30;94873.53;;;13.35;100.00
56807;BME280;42687;42.524;12.052;2023-05-16T11:25:57;94938.44;;;13.82;100.00
56807;BME280;42687;42.524;12.052;2023-05-16T11:28:26;94933.81;;;13.84;100.00
56807;BME280;42687;42.524;12.052;2023-05-16T11:30:54;94937.34;;;13.93;100.00
56807;BME280;42687;42.524;12.052;2023-05-16T11:33:22;94933.53;;;13.88;100.00
56807;BME280;42687;42.524;12.052;2023-05-16T11:36:05;94928.25;;;13.88;100.00
56807;BME280;42687;42.524;12.052;2023-05-16T11:38:33;94946.78;;;13.96;100.00
56807;BME280;42687;42.524;12.052;2023-05-16T11:41:06;94942.44;;;13.87;100.00
56807;BME280;42687;42.524;12.052;2023-05-16T11:43:51;94946.09;;;13.94;100.00
56807;BME280;42687;42.524;12.052;2023-05-16T11:46:16;94942.84;;;14.00;100.00
56807;BME280;42687;42.524;12.052;2023-05-16T11:48:42;94936.75;;;13.99;100.00
56807;BME280;42687;42.524;12.052;2023-05-16T11:51:10;94937.56;;;14.00;100.00
56807;BME280;42687;42.524;12.052;2023-05-16T11:53:36;94939.44;;;14.08;100.00
56807;BME280;42687;42.524;12.052;2023-05-16T11:56:02;94941.50;;;14.22;100.00
56807;BME280;42687;42.524;12.052;2023-05-16T11:58:28;94932.63;;;14.31;100.00
56807;BME280;42687;42.524;12.052;2023-05-16T12:00:54;94942.09;;;14.42;100.00
56807;BME280;42687;42.524;12.052;2023-05-16T12:03:20;94941.69;;;14.55;100.00
56807;BME280;42687;42.524;12.052;2023-05-16T12:05:55;94938.59;;;14.68;100.00
56807;BME280;42687;42.524;12.052;2023-05-16T12:08:22;94947.13;;;14.88;100.00
56807;BME280;42687;42.524;12.052;2023-05-16T12:10:50;94937.22;;;14.98;100.00
56807;BME280;42687;42.524;12.052;2023-05-16T12:13:21;94944.88;;;15.18;100.00
56807;BME280;42687;42.524;12.052;2023-05-16T12:15:47;94952.84;;;15.26;100.00
56807;BME280;42687;42.524;12.052;2023-05-16T12:18:14;94929.69;;;15.20;100.00
56807;BME280;42687;42.524;12.052;2023-05-16T12:20:42;94939.13;;;15.23;100.00
56807;BME280;42687;42.524;12.052;2023-05-16T12:23:12;94944.41;;;15.23;100.00
56807;BME280;42687;42.524;12.052;2023-05-16T12:25:43;94953.00;;;15.25;100.00
56807;BME280;42687;42.524;12.052;2023-05-16T12:28:12;94958.31;;;15.25;100.00
56807;BME280;42687;42.524;12.052;2023-05-16T12:30:42;94940.75;;;15.24;100.00
56807;BME280;42687;42.524;12.052;2023-05-16T12:33:12;94950.06;;;15.36;100.00
56807;BME280;42687;42.524;12.052;2023-05-16T12:35:39;94939.94;;;15.31;100.00
56807;BME280;42687;42.524;12.052;2023-05-16T12:38:09;94947.88;;;15.31;100.00
56807;BME280;42687;42.524;12.052;2023-05-16T12:40:36;94939.78;;;15.33;100.00
56807;BME280;42687;42.524;12.052;2023-05-16T12:43:11;94960.66;;;15.44;100.00
56807;BME280;42687;42.524;12.052;2023-05-16T12:45:37;94952.88;;;15.51;100.00
56807;BME280;42687;42.524;12.052;2023-05-16T12:48:04;94953.56;;;15.61;100.00
56807;BME280;42687;42.524;12.052;2023-05-16T12:50:33;94940.16;;;15.63;100.00
56807;BME280;42687;42.524;12.052;2023-05-16T12:52:59;94944.94;;;15.59;100.00
56807;BME280;42687;42.524;12.052;2023-05-16T12:55:25;94960.00;;;15.75;100.00
56807;BME280;42687;42.524;12.052;2023-05-16T12:57:51;94969.47;;;15.86;100.00
56807;BME280;42687;42.524;12.052;2023-05-16T13:00:19;94959.88;;;15.93;100.00